Terminal Aerodrome Forecast
Issued by NWS New Orleans/Baton Rouge, LA

Home | Current Version | Previous Version | Text Only | Print | Product List | Glossary On
Versions: 1 2 3 4 5 6 7 8 9 10 11 12
000
FTUS44 KLIX 191146
TAFBTR
TAF
KBTR 191146Z 1912/2012 26004KT P6SM SKC
     FM191800 31004KT P6SM VCTS BKN040CB
     FM192100 30004KT P6SM BKN140 PROB30 1921/1924 4SM -TSRA
      OVC040CB
     FM200300 00000KT P6SM SCT200=

USA.gov is the U.S. government's official web portal to all federal, state and local government web resources and services.